Waterman — PIMU — position and weather

sailwx.info

Track history (hours):
 
Tides and Currents Weather Stations Pressure Air Temp Water Temp Dewpoint Dewpoint Depression Visibility Wind Speed Wind Dir Waves Ship Positions

Waterman

Last reported at 2014-Jul-22 07:14 UTC. Time now 2014-Jul-23 05:15 UTC.
Position N 50°29' W 000°17'.

Length 26 m; draft 3.2 m.

Type: Tug. MMSI: 245128000.

Date/timePositionNaut miles runAvg speedWind from/ knotsBaromVisibWave heightAir tempDewpointWater temp
2014-Jul-22 07:14N 50°29' W 000°17'25 5.3
2014-Jul-22 02:33N 50°35' E 000°20'7 6.7
2014-Jul-22 01:33N 50°37' E 000°31'7 7.1
2014-Jul-22 00:33N 50°41' E 000°40'7 7.1
2014-Jul-21 23:34N 50°45' E 000°49'7 6.7
2014-Jul-21 22:33N 50°49' E 000°58'22 5.4
2014-Jul-21 18:30N 51°03' E 001°25'6 6.5
2014-Jul-21 17:34N 51°07' E 001°32'7 7.5
2014-Jul-21 16:34N 51°11' E 001°41'8 7.9
2014-Jul-21 15:33N 51°18' E 001°49'8 8.4
2014-Jul-21 14:34N 51°25' E 001°54'8 7.6
2014-Jul-21 13:33N 51°32' E 001°59'7 6.9
2014-Jul-21 12:32N 51°39' E 002°04'13 5.6
2014-Jul-21 10:17N 51°50' E 002°13'5 5.0
2014-Jul-21 09:20N 51°55' E 002°15'62 6.9
2014-Jul-21 00:20N 52°56' E 002°33'  
2014-Jul-18 11:28N 58°44' E 005°22'6 6.1
2014-Jul-18 10:34N 58°49' E 005°27'6 5.9
2014-Jul-18 09:33N 58°54' E 005°32'7 6.6
2014-Jul-18 08:33N 59°01' E 005°33'4 4.4
2014-Jul-18 07:33N 59°01' E 005°41'5 4.9
2014-Jul-18 06:33N 59°00' E 005°50'6 5.4
2014-Jul-18 05:32N 58°57' E 005°60'0 0.3
2014-Jul-18 04:33N 58°57' E 006°00'0 0.0
2014-Jul-18 03:33N 58°57' E 006°00'0 0.0
2014-Jul-18 02:33N 58°57' E 006°00'0 0.0
2014-Jul-18 01:33N 58°57' E 006°00'0 0.0
2014-Jul-18 00:33N 58°57' E 006°00'0 0.0
2014-Jul-17 23:33N 58°57' E 006°00'0 0.0
2014-Jul-17 22:33N 58°57' E 006°00'0 0.0
2014-Jul-17 21:33N 58°57' E 006°00'0 0.0
2014-Jul-17 20:33N 58°57' E 006°00'0 0.0
2014-Jul-17 19:33N 58°57' E 006°00'0 0.0
2014-Jul-17 18:33N 58°57' E 006°00'0 0.0
2014-Jul-17 17:33N 58°57' E 006°00'0 0.0
2014-Jul-17 16:33N 58°57' E 006°00'2 2.4
2014-Jul-17 15:33N 58°58' E 005°56'8 8.4
2014-Jul-17 14:33N 59°01' E 005°41'6 6.0
2014-Jul-17 13:33N 58°57' E 005°33'8 7.5
2014-Jul-17 12:33N 58°50' E 005°28'321 9.7
2014-Jul-16 03:34N 53°31' E 006°46'6 5.7
2014-Jul-16 02:33N 53°27' E 006°51'0 0.3
2014-Jul-16 01:34N 53°27' E 006°51'4 4.0
2014-Jul-16 00:33N 53°30' E 006°47'3 3.3
2014-Jul-15 23:34N 53°27' E 006°50'1 0.6
2014-Jul-15 22:34N 53°28' E 006°51'7 6.9
2014-Jul-15 21:33N 53°22' E 006°58'3 3.0
2014-Jul-15 20:34N 53°19' E 006°57'1 1.0
2014-Jul-15 19:33N 53°19' E 006°56'0 0.0
2014-Jul-15 18:30N 53°19' E 006°56'0 0.0
2014-Jul-15 17:33N 53°19' E 006°56'0 0.0
2014-Jul-15 16:33N 53°19' E 006°56'0 0.0
2014-Jul-15 15:33N 53°19' E 006°56'0 0.0
2014-Jul-15 14:33N 53°19' E 006°56'0 0.0
2014-Jul-15 13:33N 53°19' E 006°56'0 0.0
2014-Jul-15 12:30N 53°19' E 006°56'0 0.0
2014-Jul-15 11:30N 53°19' E 006°56'0 0.0
2014-Jul-15 10:33N 53°19' E 006°56'0 0.0
2014-Jul-15 09:33N 53°19' E 006°56'0 0.0
2014-Jul-15 08:30N 53°19' E 006°56'0 0.0
2014-Jul-15 07:33N 53°19' E 006°56'0 0.0
2014-Jul-15 06:33N 53°19' E 006°56'0 0.0
2014-Jul-15 05:33N 53°19' E 006°56'0 0.0
2014-Jul-15 04:30N 53°19' E 006°56'0 0.0
2014-Jul-15 03:33N 53°19' E 006°56'0 0.0
2014-Jul-15 02:33N 53°19' E 006°56'0 0.0
2014-Jul-15 01:33N 53°19' E 006°56'0 0.0
2014-Jul-15 00:33N 53°19' E 006°56'0 0.0
2014-Jul-14 23:33N 53°19' E 006°56'0 0.0
2014-Jul-14 22:33N 53°19' E 006°56'0 0.0
2014-Jul-14 21:33N 53°19' E 006°56'0 0.0
2014-Jul-14 20:33N 53°19' E 006°56'0 0.0
2014-Jul-14 19:33N 53°19' E 006°56'0 0.0
2014-Jul-14 18:33N 53°19' E 006°56'0 0.0
2014-Jul-14 17:30N 53°19' E 006°56'0 0.0
2014-Jul-14 16:33N 53°19' E 006°56'0 0.0
2014-Jul-14 15:33N 53°19' E 006°56'0 0.0
2014-Jul-14 14:27N 53°19' E 006°56'0 0.0
2014-Jul-14 13:27N 53°19' E 006°56'0 0.0
2014-Jul-14 12:33N 53°19' E 006°56'0 0.0
2014-Jul-14 11:30N 53°19' E 006°56'1 0.8
2014-Jul-14 10:26N 53°19' E 006°57'1 0.6
2014-Jul-14 09:28N 53°20' E 006°56'0 0.0
2014-Jul-14 08:31N 53°20' E 006°56'0 0.0
2014-Jul-14 07:31N 53°20' E 006°56'0 0.0
2014-Jul-14 06:28N 53°20' E 006°56'0 0.0
2014-Jul-14 05:31N 53°20' E 006°56'0 0.0
2014-Jul-14 04:31N 53°20' E 006°56'0 0.0
2014-Jul-14 03:22N 53°20' E 006°56'0 0.0
2014-Jul-14 02:25N 53°20' E 006°56'0 0.0
2014-Jul-14 01:31N 53°20' E 006°56'0 0.0
2014-Jul-14 00:28N 53°20' E 006°56'0 0.0
2014-Jul-13 23:31N 53°20' E 006°56'0 0.0
2014-Jul-13 22:31N 53°20' E 006°56'0 0.0
2014-Jul-13 21:31N 53°20' E 006°56'0 0.0
2014-Jul-13 20:31N 53°20' E 006°56'0 0.0
2014-Jul-13 19:31N 53°20' E 006°56'0 0.0
2014-Jul-13 18:25N 53°20' E 006°56'0 0.0
2014-Jul-13 17:31N 53°20' E 006°56'0 0.0
2014-Jul-13 16:31N 53°20' E 006°56'0 0.0
2014-Jul-13 15:31N 53°20' E 006°56'0 0.0
2014-Jul-13 14:31N 53°20' E 006°56'0 0.0
2014-Jul-13 13:31N 53°20' E 006°56'0 0.0
2014-Jul-13 12:25N 53°20' E 006°56'0 0.0
2014-Jul-13 11:31N 53°20' E 006°56'0 0.0
2014-Jul-13 10:31N 53°20' E 006°56'0 0.0
2014-Jul-13 09:31N 53°20' E 006°56'0 0.0
2014-Jul-13 08:31N 53°20' E 006°56'0 0.0
2014-Jul-13 07:31N 53°20' E 006°56'0 0.0
2014-Jul-13 06:31N 53°20' E 006°56'0 0.0
2014-Jul-13 05:28N 53°20' E 006°56'0 0.0
2014-Jul-13 04:28N 53°20' E 006°56'0 0.0
2014-Jul-13 03:31N 53°20' E 006°56'0 0.0
2014-Jul-13 02:31N 53°20' E 006°56'0 0.0
2014-Jul-13 01:31N 53°20' E 006°56'0 0.0
2014-Jul-13 00:31N 53°20' E 006°56'0 0.0
2014-Jul-12 23:31N 53°20' E 006°56'0 0.0
2014-Jul-12 22:31N 53°20' E 006°56'0 0.0
2014-Jul-12 21:31N 53°20' E 006°56'0 0.0
2014-Jul-12 20:31N 53°20' E 006°56'0 0.0
2014-Jul-12 19:31N 53°20' E 006°56'0 0.0
2014-Jul-12 18:31N 53°20' E 006°56'0 0.0
2014-Jul-12 17:31N 53°20' E 006°56'0 0.0
2014-Jul-12 16:28N 53°20' E 006°56'0 0.0
2014-Jul-12 15:28N 53°20' E 006°56'0 0.0
2014-Jul-12 14:31N 53°20' E 006°56'0 0.0
2014-Jul-12 13:31N 53°20' E 006°56'0 0.0
2014-Jul-12 12:31N 53°20' E 006°56'0 0.0
2014-Jul-12 11:31N 53°20' E 006°56'0 0.0
2014-Jul-12 10:31N 53°20' E 006°56'0 0.0
2014-Jul-12 09:31N 53°20' E 006°56'0 0.0
2014-Jul-12 08:31N 53°20' E 006°56'0 0.0
2014-Jul-12 07:31N 53°20' E 006°56'  
Track history (hours):
 
Tides and Currents Weather Stations Pressure Air Temp Water Temp Dewpoint Dewpoint Depression Visibility Wind Speed Wind Dir Waves Ship Positions

Waterman

Last reported at 2014-Jul-22 07:14 UTC. Time now 2014-Jul-23 05:15 UTC.
Position N 50°29' W 000°17'.

Length 26 m; draft 3.2 m.

Type: Tug. MMSI: 245128000.

Date/timePositionNaut miles runAvg speedWind from/ knotsBaromVisibWave heightAir tempDewpointWater temp
2014-Jul-22 07:14N 50°29' W 000°17'25 5.3
2014-Jul-22 02:33N 50°35' E 000°20'7 6.7
2014-Jul-22 01:33N 50°37' E 000°31'7 7.1
2014-Jul-22 00:33N 50°41' E 000°40'7 7.1
2014-Jul-21 23:34N 50°45' E 000°49'7 6.7
2014-Jul-21 22:33N 50°49' E 000°58'22 5.4
2014-Jul-21 18:30N 51°03' E 001°25'6 6.5
2014-Jul-21 17:34N 51°07' E 001°32'7 7.5
2014-Jul-21 16:34N 51°11' E 001°41'8 7.9
2014-Jul-21 15:33N 51°18' E 001°49'8 8.4
2014-Jul-21 14:34N 51°25' E 001°54'8 7.6
2014-Jul-21 13:33N 51°32' E 001°59'7 6.9
2014-Jul-21 12:32N 51°39' E 002°04'13 5.6
2014-Jul-21 10:17N 51°50' E 002°13'5 5.0
2014-Jul-21 09:20N 51°55' E 002°15'62 6.9
2014-Jul-21 00:20N 52°56' E 002°33'  
2014-Jul-18 11:28N 58°44' E 005°22'6 6.1
2014-Jul-18 10:34N 58°49' E 005°27'6 5.9
2014-Jul-18 09:33N 58°54' E 005°32'7 6.6
2014-Jul-18 08:33N 59°01' E 005°33'4 4.4
2014-Jul-18 07:33N 59°01' E 005°41'5 4.9
2014-Jul-18 06:33N 59°00' E 005°50'6 5.4
2014-Jul-18 05:32N 58°57' E 005°60'0 0.3
2014-Jul-18 04:33N 58°57' E 006°00'0 0.0
2014-Jul-18 03:33N 58°57' E 006°00'0 0.0
2014-Jul-18 02:33N 58°57' E 006°00'0 0.0
2014-Jul-18 01:33N 58°57' E 006°00'0 0.0
2014-Jul-18 00:33N 58°57' E 006°00'0 0.0
2014-Jul-17 23:33N 58°57' E 006°00'0 0.0
2014-Jul-17 22:33N 58°57' E 006°00'0 0.0
2014-Jul-17 21:33N 58°57' E 006°00'0 0.0
2014-Jul-17 20:33N 58°57' E 006°00'0 0.0
2014-Jul-17 19:33N 58°57' E 006°00'0 0.0
2014-Jul-17 18:33N 58°57' E 006°00'0 0.0
2014-Jul-17 17:33N 58°57' E 006°00'0 0.0
2014-Jul-17 16:33N 58°57' E 006°00'2 2.4
2014-Jul-17 15:33N 58°58' E 005°56'8 8.4
2014-Jul-17 14:33N 59°01' E 005°41'6 6.0
2014-Jul-17 13:33N 58°57' E 005°33'8 7.5
2014-Jul-17 12:33N 58°50' E 005°28'321 9.7
2014-Jul-16 03:34N 53°31' E 006°46'6 5.7
2014-Jul-16 02:33N 53°27' E 006°51'0 0.3
2014-Jul-16 01:34N 53°27' E 006°51'4 4.0
2014-Jul-16 00:33N 53°30' E 006°47'3 3.3
2014-Jul-15 23:34N 53°27' E 006°50'1 0.6
2014-Jul-15 22:34N 53°28' E 006°51'7 6.9
2014-Jul-15 21:33N 53°22' E 006°58'3 3.0
2014-Jul-15 20:34N 53°19' E 006°57'1 1.0
2014-Jul-15 19:33N 53°19' E 006°56'0 0.0
2014-Jul-15 18:30N 53°19' E 006°56'0 0.0
2014-Jul-15 17:33N 53°19' E 006°56'0 0.0
2014-Jul-15 16:33N 53°19' E 006°56'0 0.0
2014-Jul-15 15:33N 53°19' E 006°56'0 0.0
2014-Jul-15 14:33N 53°19' E 006°56'0 0.0
2014-Jul-15 13:33N 53°19' E 006°56'0 0.0
2014-Jul-15 12:30N 53°19' E 006°56'0 0.0
2014-Jul-15 11:30N 53°19' E 006°56'0 0.0
2014-Jul-15 10:33N 53°19' E 006°56'0 0.0
2014-Jul-15 09:33N 53°19' E 006°56'0 0.0
2014-Jul-15 08:30N 53°19' E 006°56'0 0.0
2014-Jul-15 07:33N 53°19' E 006°56'0 0.0
2014-Jul-15 06:33N 53°19' E 006°56'0 0.0
2014-Jul-15 05:33N 53°19' E 006°56'0 0.0
2014-Jul-15 04:30N 53°19' E 006°56'0 0.0
2014-Jul-15 03:33N 53°19' E 006°56'0 0.0
2014-Jul-15 02:33N 53°19' E 006°56'0 0.0
2014-Jul-15 01:33N 53°19' E 006°56'0 0.0
2014-Jul-15 00:33N 53°19' E 006°56'0 0.0
2014-Jul-14 23:33N 53°19' E 006°56'0 0.0
2014-Jul-14 22:33N 53°19' E 006°56'0 0.0
2014-Jul-14 21:33N 53°19' E 006°56'0 0.0
2014-Jul-14 20:33N 53°19' E 006°56'0 0.0
2014-Jul-14 19:33N 53°19' E 006°56'0 0.0
2014-Jul-14 18:33N 53°19' E 006°56'0 0.0
2014-Jul-14 17:30N 53°19' E 006°56'0 0.0
2014-Jul-14 16:33N 53°19' E 006°56'0 0.0
2014-Jul-14 15:33N 53°19' E 006°56'0 0.0
2014-Jul-14 14:27N 53°19' E 006°56'0 0.0
2014-Jul-14 13:27N 53°19' E 006°56'0 0.0
2014-Jul-14 12:33N 53°19' E 006°56'0 0.0
2014-Jul-14 11:30N 53°19' E 006°56'1 0.8
2014-Jul-14 10:26N 53°19' E 006°57'1 0.6
2014-Jul-14 09:28N 53°20' E 006°56'0 0.0
2014-Jul-14 08:31N 53°20' E 006°56'0 0.0
2014-Jul-14 07:31N 53°20' E 006°56'0 0.0
2014-Jul-14 06:28N 53°20' E 006°56'0 0.0
2014-Jul-14 05:31N 53°20' E 006°56'0 0.0
2014-Jul-14 04:31N 53°20' E 006°56'0 0.0
2014-Jul-14 03:22N 53°20' E 006°56'0 0.0
2014-Jul-14 02:25N 53°20' E 006°56'0 0.0
2014-Jul-14 01:31N 53°20' E 006°56'0 0.0
2014-Jul-14 00:28N 53°20' E 006°56'0 0.0
2014-Jul-13 23:31N 53°20' E 006°56'0 0.0
2014-Jul-13 22:31N 53°20' E 006°56'0 0.0
2014-Jul-13 21:31N 53°20' E 006°56'0 0.0
2014-Jul-13 20:31N 53°20' E 006°56'0 0.0
2014-Jul-13 19:31N 53°20' E 006°56'0 0.0
2014-Jul-13 18:25N 53°20' E 006°56'0 0.0
2014-Jul-13 17:31N 53°20' E 006°56'0 0.0
2014-Jul-13 16:31N 53°20' E 006°56'0 0.0
2014-Jul-13 15:31N 53°20' E 006°56'0 0.0
2014-Jul-13 14:31N 53°20' E 006°56'0 0.0
2014-Jul-13 13:31N 53°20' E 006°56'0 0.0
2014-Jul-13 12:25N 53°20' E 006°56'0 0.0
2014-Jul-13 11:31N 53°20' E 006°56'0 0.0
2014-Jul-13 10:31N 53°20' E 006°56'0 0.0
2014-Jul-13 09:31N 53°20' E 006°56'0 0.0
2014-Jul-13 08:31N 53°20' E 006°56'0 0.0
2014-Jul-13 07:31N 53°20' E 006°56'0 0.0
2014-Jul-13 06:31N 53°20' E 006°56'0 0.0
2014-Jul-13 05:28N 53°20' E 006°56'0 0.0
2014-Jul-13 04:28N 53°20' E 006°56'0 0.0
2014-Jul-13 03:31N 53°20' E 006°56'0 0.0
2014-Jul-13 02:31N 53°20' E 006°56'0 0.0
2014-Jul-13 01:31N 53°20' E 006°56'0 0.0
2014-Jul-13 00:31N 53°20' E 006°56'0 0.0
2014-Jul-12 23:31N 53°20' E 006°56'0 0.0
2014-Jul-12 22:31N 53°20' E 006°56'0 0.0
2014-Jul-12 21:31N 53°20' E 006°56'0 0.0
2014-Jul-12 20:31N 53°20' E 006°56'0 0.0
2014-Jul-12 19:31N 53°20' E 006°56'0 0.0
2014-Jul-12 18:31N 53°20' E 006°56'0 0.0
2014-Jul-12 17:31N 53°20' E 006°56'0 0.0
2014-Jul-12 16:28N 53°20' E 006°56'0 0.0
2014-Jul-12 15:28N 53°20' E 006°56'0 0.0
2014-Jul-12 14:31N 53°20' E 006°56'0 0.0
2014-Jul-12 13:31N 53°20' E 006°56'0 0.0
2014-Jul-12 12:31N 53°20' E 006°56'0 0.0
2014-Jul-12 11:31N 53°20' E 006°56'0 0.0
2014-Jul-12 10:31N 53°20' E 006°56'0 0.0
2014-Jul-12 09:31N 53°20' E 006°56'0 0.0
2014-Jul-12 08:31N 53°20' E 006°56'0 0.0
2014-Jul-12 07:31N 53°20' E 006°56'  

Dump ship's entire track history